Time,TemperatureF,DewpointF,PressureIn,WindDirection,WindDirectionDegrees,WindSpeedMPH,WindSpeedGustMPH,Humidity,HourlyPrecipIn,Conditions,Clouds,dailyrainin,SoftwareType,DateUTC
2013-07-19 00:11:00,67.0,45.0,-100.00,SE,131,7.0,10.0,45,0.00,,,0.00,,2013-07-19 06:11:00,
2013-07-19 00:32:00,63.0,45.0,-100.00,SE,131,7.0,10.0,52,0.00,,,0.00,,2013-07-19 06:32:00,
2013-07-19 01:01:00,62.0,44.0,-100.00,SE,134,9.0,11.0,51,0.00,,,0.00,,2013-07-19 07:01:00,
2013-07-19 01:12:00,62.0,44.0,-100.00,SE,134,9.0,11.0,51,0.00,,,0.00,,2013-07-19 07:12:00,
2013-07-19 01:43:00,62.0,42.0,-100.00,SE,136,9.0,11.0,48,0.00,,,0.00,,2013-07-19 07:43:00,
2013-07-19 01:53:00,62.0,42.0,-100.00,SE,136,9.0,11.0,48,0.00,,,0.00,,2013-07-19 07:53:00,
2013-07-19 02:01:00,62.0,42.0,-100.00,SE,136,9.0,11.0,48,0.00,,,0.00,,2013-07-19 08:01:00,
2013-07-19 02:11:00,62.0,42.0,-100.00,SE,136,9.0,11.0,48,0.00,,,0.00,,2013-07-19 08:11:00,
2013-07-19 02:22:00,62.0,40.0,-100.00,SE,140,10.0,12.0,45,0.00,,,0.00,,2013-07-19 08:22:00,
2013-07-19 02:32:00,62.0,40.0,-100.00,SE,140,10.0,12.0,45,0.00,,,0.00,,2013-07-19 08:32:00,
2013-07-19 02:43:00,62.0,41.0,-100.00,SE,141,11.0,14.0,46,0.00,,,0.00,,2013-07-19 08:43:00,
2013-07-19 02:52:00,62.0,41.0,-100.00,SE,141,11.0,14.0,46,0.00,,,0.00,,2013-07-19 08:52:00,
2013-07-19 03:02:00,62.0,41.0,-100.00,SE,141,11.0,14.0,46,0.00,,,0.00,,2013-07-19 09:02:00,
2013-07-19 03:22:00,64.0,37.0,-100.00,WSW,240,5.0,7.0,37,0.00,,,0.00,,2013-07-19 09:22:00,
2013-07-19 03:32:00,64.0,37.0,-100.00,WSW,240,5.0,7.0,37,0.00,,,0.00,,2013-07-19 09:32:00,
2013-07-19 03:43:00,60.0,36.0,-100.00,SSW,196,3.0,4.0,41,0.00,,,0.00,,2013-07-19 09:43:00,
2013-07-19 03:52:00,60.0,36.0,-100.00,SSW,196,3.0,4.0,41,0.00,,,0.00,,2013-07-19 09:52:00,
2013-07-19 04:01:00,60.0,36.0,-100.00,SSW,196,3.0,4.0,41,0.00,,,0.00,,2013-07-19 10:01:00,
2013-07-19 04:11:00,60.0,36.0,-100.00,SSW,196,3.0,4.0,41,0.00,,,0.00,,2013-07-19 10:11:00,
2013-07-19 04:22:00,58.0,38.0,-100.00,South,171,6.0,7.0,47,0.00,,,-99.99,,2013-07-19 10:22:00,
2013-07-19 04:32:00,58.0,38.0,-100.00,South,171,6.0,7.0,47,0.00,,,-99.99,,2013-07-19 10:32:00,
2013-07-19 04:52:00,56.0,41.0,-100.00,SSE,147,6.0,8.0,57,0.00,,,-99.99,,2013-07-19 10:52:00,
2013-07-19 05:02:00,56.0,41.0,-100.00,SSE,147,6.0,8.0,57,0.00,,,-99.99,,2013-07-19 11:02:00,
2013-07-19 05:43:00,52.0,43.0,-100.00,SE,138,7.0,8.0,70,0.00,,,-99.99,,2013-07-19 11:43:00,
2013-07-19 05:52:00,52.0,43.0,-100.00,SE,138,7.0,8.0,70,0.00,,,-99.99,,2013-07-19 11:52:00,
2013-07-19 06:01:00,52.0,43.0,-100.00,SE,138,7.0,8.0,70,0.00,,,-99.99,,2013-07-19 12:01:00,
2013-07-19 06:12:00,52.0,41.0,-100.00,SSE,147,5.0,6.0,66,0.00,,,-99.99,,2013-07-19 12:12:00,
2013-07-19 06:22:00,52.0,41.0,-100.00,SSE,147,5.0,6.0,66,0.00,,,-99.99,,2013-07-19 12:22:00,
2013-07-19 06:33:00,52.0,41.0,-100.00,SSE,147,5.0,6.0,66,0.00,,,-99.99,,2013-07-19 12:33:00,
2013-07-19 06:43:00,52.0,40.0,-100.00,SSE,147,6.0,7.0,64,0.00,,,-99.99,,2013-07-19 12:43:00,
2013-07-19 06:52:00,52.0,40.0,-100.00,SSE,147,6.0,7.0,64,0.00,,,-99.99,,2013-07-19 12:52:00,
2013-07-19 07:02:00,52.0,40.0,-100.00,SSE,147,6.0,7.0,64,0.00,,,-99.99,,2013-07-19 13:02:00,
2013-07-19 07:22:00,54.0,42.0,-100.00,SSE,151,4.0,6.0,64,0.00,,,-99.99,,2013-07-19 13:22:00,
2013-07-19 07:32:00,54.0,42.0,-100.00,SSE,151,4.0,6.0,64,0.00,,,-99.99,,2013-07-19 13:32:00,
2013-07-19 07:53:00,56.0,42.0,-100.00,SSE,155,4.0,5.0,59,0.00,,,-99.99,,2013-07-19 13:53:00,
2013-07-19 08:02:00,56.0,42.0,-100.00,SSE,155,4.0,5.0,59,0.00,,,-99.99,,2013-07-19 14:02:00,
2013-07-19 08:11:00,56.0,42.0,-100.00,SSE,155,4.0,5.0,59,0.00,,,-99.99,,2013-07-19 14:11:00,
2013-07-19 08:22:00,61.0,45.0,-100.00,SW,216,1.0,2.0,56,0.00,,,-99.99,,2013-07-19 14:22:00,
2013-07-19 08:33:00,61.0,45.0,-100.00,SW,216,1.0,2.0,56,0.00,,,-99.99,,2013-07-19 14:33:00,
2013-07-19 08:43:00,64.0,48.0,-100.00,ESE,120,4.0,4.0,55,0.00,,,-99.99,,2013-07-19 14:43:00,
2013-07-19 08:53:00,64.0,48.0,-100.00,ESE,120,4.0,4.0,55,0.00,,,-99.99,,2013-07-19 14:53:00,
2013-07-19 09:02:00,64.0,48.0,-100.00,ESE,120,4.0,4.0,55,0.00,,,-99.99,,2013-07-19 15:02:00,
2013-07-19 09:11:00,64.0,48.0,-100.00,ESE,120,4.0,4.0,55,0.00,,,-99.99,,2013-07-19 15:11:00,
2013-07-19 09:43:00,71.0,47.0,-100.00,SE,134,3.0,4.0,43,0.00,,,-99.99,,2013-07-19 15:43:00,
2013-07-19 10:22:00,77.0,51.0,-100.00,West,278,2.0,3.0,39,0.00,,,-99.99,,2013-07-19 16:22:00,
2013-07-19 10:32:00,77.0,51.0,-100.00,West,278,2.0,3.0,39,0.00,,,-99.99,,2013-07-19 16:32:00,
2013-07-19 11:43:00,82.0,44.0,-100.00,NNE,32,4.0,6.0,27,0.00,,,-99.99,,2013-07-19 17:43:00,
2013-07-19 11:52:00,82.0,44.0,-100.00,NNE,32,4.0,6.0,27,0.00,,,-99.99,,2013-07-19 17:52:00,
2013-07-19 12:11:00,83.0,47.0,-100.00,NNW,343,5.0,8.0,28,0.00,,,-99.99,,2013-07-19 18:11:00,
2013-07-19 12:21:00,83.0,47.0,-100.00,NNW,343,5.0,8.0,28,0.00,,,-99.99,,2013-07-19 18:21:00,
2013-07-19 12:32:00,86.0,46.0,-100.00,NNE,14,6.0,8.0,25,0.00,,,-99.99,,2013-07-19 18:32:00,
2013-07-19 12:42:00,86.0,46.0,-100.00,NNE,14,6.0,8.0,25,0.00,,,-99.99,,2013-07-19 18:42:00,
2013-07-19 12:52:00,86.0,46.0,-100.00,NNE,14,6.0,8.0,25,0.00,,,-99.99,,2013-07-19 18:52:00,
2013-07-19 13:11:00,88.0,45.0,-100.00,NNE,21,5.0,7.0,22,0.00,,,-99.99,,2013-07-19 19:11:00,
2013-07-19 13:21:00,88.0,45.0,-100.00,NNE,21,5.0,7.0,22,0.00,,,-99.99,,2013-07-19 19:21:00,
2013-07-19 13:30:00,91.0,42.0,-100.00,NE,48,4.0,5.0,18,0.00,,,-99.99,,2013-07-19 19:30:00,
2013-07-19 13:43:00,90.0,43.0,-100.00,NNW,329,2.0,4.0,20,0.00,,,-99.99,,2013-07-19 19:43:00,
2013-07-19 13:52:00,90.0,43.0,-100.00,NNW,329,2.0,4.0,20,0.00,,,-99.99,,2013-07-19 19:52:00,
2013-07-19 14:11:00,91.0,42.0,-100.00,NE,48,4.0,5.0,18,0.00,,,-99.99,,2013-07-19 20:11:00,
2013-07-19 14:22:00,91.0,42.0,-100.00,NE,48,4.0,5.0,18,0.00,,,-99.99,,2013-07-19 20:22:00,
2013-07-19 14:43:00,92.0,40.0,-100.00,NNE,30,4.0,6.0,16,0.00,,,-99.99,,2013-07-19 20:43:00,
2013-07-19 14:52:00,92.0,39.0,-100.00,NNE,16,4.0,6.0,15,0.00,,,-99.99,,2013-07-19 20:52:00,
2013-07-19 15:01:00,92.0,39.0,-100.00,NNE,16,4.0,6.0,15,0.00,,,-99.99,,2013-07-19 21:01:00,
2013-07-19 15:11:00,92.0,39.0,-100.00,NNE,16,4.0,6.0,15,0.00,,,-99.99,,2013-07-19 21:11:00,
2013-07-19 15:21:00,94.0,40.0,-100.00,WNW,301,2.0,4.0,16,0.00,,,-99.99,,2013-07-19 21:21:00,
2013-07-19 15:32:00,94.0,40.0,-100.00,WNW,301,2.0,4.0,16,0.00,,,-99.99,,2013-07-19 21:32:00,
2013-07-19 15:42:00,94.0,40.0,-100.00,SSE,158,4.0,5.0,15,0.00,,,-99.99,,2013-07-19 21:42:00,
2013-07-19 15:52:00,94.0,40.0,-100.00,SSE,158,4.0,5.0,15,0.00,,,-99.99,,2013-07-19 21:52:00,
2013-07-19 16:01:00,94.0,40.0,-100.00,SSE,158,4.0,5.0,15,0.00,,,-99.99,,2013-07-19 22:01:00,
2013-07-19 16:21:00,96.0,41.0,-100.00,South,178,6.0,10.0,15,0.00,,,-99.99,,2013-07-19 22:21:00,
2013-07-19 16:32:00,96.0,41.0,-100.00,South,178,6.0,10.0,15,0.00,,,-99.99,,2013-07-19 22:32:00,
2013-07-19 16:42:00,96.0,41.0,-100.00,SE,137,3.0,4.0,15,0.00,,,-99.99,,2013-07-19 22:42:00,
2013-07-19 16:52:00,96.0,41.0,-100.00,SE,137,3.0,4.0,15,0.00,,,-99.99,,2013-07-19 22:52:00,
2013-07-19 17:01:00,96.0,41.0,-100.00,SE,137,3.0,4.0,15,0.00,,,-99.99,,2013-07-19 23:01:00,
2013-07-19 17:11:00,96.0,41.0,-100.00,SE,137,3.0,4.0,15,0.00,,,-99.99,,2013-07-19 23:11:00,
2013-07-19 17:21:00,96.0,41.0,-100.00,SSW,213,5.0,8.0,15,0.00,,,-99.99,,2013-07-19 23:21:00,
2013-07-19 17:32:00,96.0,41.0,-100.00,SSW,213,5.0,8.0,15,0.00,,,-99.99,,2013-07-19 23:32:00,
2013-07-19 17:43:00,97.0,37.0,-100.00,South,181,6.0,10.0,12,0.00,,,-99.99,,2013-07-19 23:43:00,
2013-07-19 17:52:00,97.0,37.0,-100.00,South,181,6.0,10.0,12,0.00,,,-99.99,,2013-07-19 23:52:00,
2013-07-19 18:01:00,97.0,37.0,-100.00,South,181,6.0,10.0,12,0.00,,,-99.99,,2013-07-20 00:01:00,
2013-07-19 18:11:00,97.0,37.0,-100.00,South,181,6.0,10.0,12,0.00,,,-99.99,,2013-07-20 00:11:00,
2013-07-19 18:21:00,97.0,36.0,-100.00,SW,230,6.0,8.0,12,0.00,,,-99.99,,2013-07-20 00:21:00,
2013-07-19 18:30:00,95.0,42.0,-100.00,SSW,209,5.0,7.0,16,0.00,,,-99.99,,2013-07-20 00:30:00,
2013-07-19 18:32:00,97.0,36.0,-100.00,SW,230,6.0,8.0,12,0.00,,,-99.99,,2013-07-20 00:32:00,
2013-07-19 18:43:00,97.0,36.0,-100.00,SW,230,6.0,8.0,12,0.00,,,-99.99,,2013-07-20 00:43:00,
2013-07-19 19:01:00,95.0,42.0,-100.00,SSW,209,5.0,7.0,16,0.00,,,-99.99,,2013-07-20 01:01:00,
2013-07-19 19:11:00,95.0,42.0,-100.00,SSW,209,5.0,7.0,16,0.00,,,-99.99,,2013-07-20 01:11:00,
2013-07-19 19:22:00,95.0,42.0,-100.00,SSW,209,5.0,7.0,16,0.00,,,-99.99,,2013-07-20 01:22:00,
2013-07-19 20:01:00,92.0,45.0,-100.00,SSW,199,6.0,7.0,19,0.00,,,-99.99,,2013-07-20 02:01:00,
2013-07-19 20:11:00,92.0,45.0,-100.00,SSW,199,6.0,7.0,19,0.00,,,-99.99,,2013-07-20 02:11:00,
2013-07-19 20:21:00,92.0,45.0,-100.00,SSW,199,6.0,7.0,19,0.00,,,-99.99,,2013-07-20 02:21:00,
2013-07-19 22:44:00,72.0,46.0,-100.00,SE,143,8.0,9.0,39,0.00,,,-99.99,,2013-07-20 04:44:00,
2013-07-19 22:52:00,72.0,46.0,-100.00,SE,143,8.0,9.0,39,0.00,,,-99.99,,2013-07-20 04:52:00,
2013-07-19 23:32:00,69.0,46.0,-100.00,SE,144,9.0,9.0,44,0.00,,,-99.99,,2013-07-20 05:32:00,
2013-07-19 23:52:00,69.0,46.0,-100.00,SE,144,9.0,9.0,44,0.00,,,-99.99,,2013-07-20 05:52:00,